Time;durP1;ratioP1;P1;durP2;ratioP2;P2;SDS_P1;SDS_P2;PMS_P1;PMS_P2;Temp;Humidity;BMP_temperature;BMP_pressure;BME280_temperature;BME280_humidity;BME280_pressure;Samples;Min_cycle;Max_cycle;Signal;HPM_P1;HPM_P2
2021/12/12 00:01:45;;;;;;;14.82;5.75;;;12.90;83.50;;;;;;5087398;28;20051;-70
2021/12/12 00:04:15;;;;;;;13.88;5.63;;;12.90;83.50;;;;;;5074921;28;20020;-69
2021/12/12 00:06:51;;;;;;;14.95;5.18;;;12.90;83.30;;;;;;5074123;28;20013;-71
2021/12/12 00:09:25;;;;;;;16.63;5.60;;;12.90;83.60;;;;;;5075059;28;20472;-70
2021/12/12 00:11:52;;;;;;;11.45;4.85;;;12.90;83.80;;;;;;5093988;28;20063;-69
2021/12/12 00:14:24;;;;;;;17.65;5.72;;;13.00;84.00;;;;;;5093410;28;20128;-70
2021/12/12 00:16:51;;;;;;;15.00;5.15;;;12.90;83.80;;;;;;5094422;28;20024;-70
2021/12/12 00:19:17;;;;;;;11.15;4.72;;;12.90;83.80;;;;;;5092928;28;20381;-70
2021/12/12 00:21:48;;;;;;;18.95;6.25;;;12.90;83.60;;;;;;5093639;28;20174;-70
2021/12/12 00:24:15;;;;;;;18.65;5.45;;;12.90;83.60;;;;;;5094221;28;20028;-70
2021/12/12 00:26:42;;;;;;;17.85;5.43;;;12.90;84.00;;;;;;5094456;28;20043;-70
2021/12/12 00:29:10;;;;;;;15.95;5.20;;;12.90;83.70;;;;;;5093935;28;20465;-70
2021/12/12 00:31:36;;;;;;;12.27;4.72;;;12.90;83.60;;;;;;5094210;28;20035;-67
2021/12/12 00:34:03;;;;;;;14.15;5.07;;;12.90;83.80;;;;;;5094000;28;20066;-69
2021/12/12 00:36:29;;;;;;;17.40;4.55;;;12.90;83.90;;;;;;5093841;28;20107;-71
2021/12/12 00:39:11;;;;;;;17.65;6.10;;;12.90;83.90;;;;;;5094151;28;20509;-70
2021/12/12 00:41:48;;;;;;;13.82;5.53;;;12.90;84.00;;;;;;5093883;28;20031;-69
2021/12/12 00:44:14;;;;;;;14.77;4.97;;;12.90;84.40;;;;;;5093885;28;20032;-69
2021/12/12 00:46:41;;;;;;;17.35;5.65;;;12.90;84.40;;;;;;5093993;28;20028;-70
2021/12/12 00:49:09;;;;;;;13.52;5.13;;;12.80;84.40;;;;;;5092450;28;20012;-68
2021/12/12 00:51:37;;;;;;;13.32;4.60;;;12.80;84.60;;;;;;5092623;28;20047;-70
2021/12/12 00:54:04;;;;;;;17.98;5.47;;;12.80;84.60;;;;;;5093831;28;20027;-67
2021/12/12 00:56:30;;;;;;;17.60;5.20;;;12.80;84.50;;;;;;5093767;28;20409;-69
2021/12/12 00:58:55;;;;;;;11.68;4.70;;;12.80;84.50;;;;;;5093853;28;20016;-68
2021/12/12 01:01:25;;;;;;;16.00;5.45;;;12.80;84.60;;;;;;5093619;28;20032;-67
2021/12/12 01:03:55;;;;;;;10.80;3.80;;;12.80;84.70;;;;;;5093540;28;20024;-71
2021/12/12 01:06:24;;;;;;;17.45;5.47;;;12.80;84.90;;;;;;5093547;28;20538;-69
2021/12/12 01:08:51;;;;;;;13.75;4.50;;;12.90;85.10;;;;;;5093552;28;20042;-70
2021/12/12 01:11:26;;;;;;;11.90;5.47;;;12.90;85.20;;;;;;5093586;28;20508;-63
2021/12/12 01:13:53;;;;;;;11.18;4.82;;;12.90;85.20;;;;;;5093205;28;20097;-67
2021/12/12 01:16:27;;;;;;;15.02;5.25;;;12.90;85.20;;;;;;5093575;28;20020;-70
2021/12/12 01:19:00;;;;;;;15.13;4.63;;;12.90;85.30;;;;;;5093196;28;20369;-70
2021/12/12 01:21:38;;;;;;;11.43;4.45;;;12.80;85.30;;;;;;5093582;28;20055;-68
2021/12/12 01:24:11;;;;;;;17.05;5.38;;;12.80;85.50;;;;;;5092148;28;20020;-68
2021/12/12 01:26:39;;;;;;;15.38;5.68;;;12.80;85.50;;;;;;5092182;28;20020;-69
2021/12/12 01:29:09;;;;;;;11.73;4.25;;;12.80;85.50;;;;;;5093317;28;20027;-69
2021/12/12 01:31:45;;;;;;;16.10;4.80;;;12.80;85.60;;;;;;5093304;28;20039;-69
2021/12/12 01:34:14;;;;;;;13.13;4.82;;;12.90;85.90;;;;;;5093169;28;20020;-68
2021/12/12 01:39:29;;;;;;;13.45;5.03;;;12.80;85.70;;;;;;5092497;28;20043;-69
2021/12/12 01:42:10;;;;;;;18.75;5.47;;;12.80;85.80;;;;;;5093244;28;20107;-70
2021/12/12 01:45:05;;;;;;;12.93;4.85;;;12.80;86.00;;;;;;5092892;28;20028;-69
2021/12/12 01:47:45;;;;;;;12.80;4.90;;;12.80;86.00;;;;;;5020484;28;20042;-70
2021/12/12 01:50:34;;;;;;;13.68;5.25;;;12.80;86.10;;;;;;5093152;28;20469;-70
2021/12/12 01:53:02;;;;;;;11.35;4.72;;;12.80;86.10;;;;;;5093196;28;20083;-69
2021/12/12 01:55:44;;;;;;;10.95;4.38;;;12.80;86.10;;;;;;5092902;28;20067;-70
2021/12/12 01:58:14;;;;;;;15.77;4.72;;;12.80;86.30;;;;;;5093024;28;20032;-69
2021/12/12 02:00:52;;;;;;;15.95;4.93;;;12.90;86.30;;;;;;5093149;28;20145;-68
2021/12/12 02:03:22;;;;;;;15.27;5.07;;;12.90;86.40;;;;;;5092945;28;20012;-69
2021/12/12 02:05:48;;;;;;;13.02;4.47;;;12.90;86.30;;;;;;5092797;28;20031;-68
2021/12/12 02:08:17;;;;;;;13.48;4.85;;;12.90;86.40;;;;;;5093129;28;20030;-70
2021/12/12 02:10:48;;;;;;;11.48;4.78;;;12.90;86.40;;;;;;5092569;28;20347;-69
2021/12/12 02:13:21;;;;;;;12.57;4.53;;;12.90;86.50;;;;;;5092971;28;20040;-70
2021/12/12 02:15:50;;;;;;;14.30;5.72;;;12.80;86.60;;;;;;5092570;28;20031;-69
2021/12/12 02:18:18;;;;;;;11.20;4.38;;;12.80;86.60;;;;;;5094918;28;20473;-70
2021/12/12 02:21:05;;;;;;;9.82;4.32;;;12.90;86.70;;;;;;5096685;28;20513;-65
2021/12/12 02:23:45;;;;;;;11.15;5.07;;;13.00;86.60;;;;;;5096750;28;20028;-60
2021/12/12 02:37:10;;;;;;;7.82;3.85;;;13.00;86.80;;;;;;5096617;28;20075;-70
2021/12/12 02:39:37;;;;;;;11.93;4.25;;;13.00;86.70;;;;;;5097088;28;20032;-69
2021/12/12 02:42:11;;;;;;;10.57;3.83;;;12.90;86.80;;;;;;5096606;28;20031;-70
2021/12/12 02:44:39;;;;;;;8.20;3.92;;;13.00;86.70;;;;;;5096227;28;20056;-70
2021/12/12 02:47:13;;;;;;;9.93;4.70;;;13.00;86.90;;;;;;5096404;28;20013;-68
2021/12/12 02:49:55;;;;;;;9.20;3.75;;;12.90;87.10;;;;;;5096280;28;20530;-69
2021/12/12 02:52:28;;;;;;;6.75;3.15;;;12.90;87.10;;;;;;5096228;28;20458;-70
2021/12/12 02:54:57;;;;;;;9.35;4.32;;;12.90;87.00;;;;;;5095804;28;20031;-66
2021/12/12 02:57:23;;;;;;;9.57;3.85;;;12.90;87.10;;;;;;5096387;28;20095;-64
2021/12/12 02:59:50;;;;;;;6.70;2.92;;;12.90;87.30;;;;;;5095866;28;20418;-60
2021/12/12 03:02:28;;;;;;;9.65;3.95;;;12.90;87.30;;;;;;5095964;28;20019;-63
2021/12/12 03:04:57;;;;;;;9.10;3.67;;;13.00;87.00;;;;;;5096061;28;20028;-66
2021/12/12 03:07:23;;;;;;;7.03;3.40;;;13.00;87.20;;;;;;5095910;28;20020;-67
2021/12/12 03:09:54;;;;;;;7.55;3.60;;;13.00;87.20;;;;;;5094597;28;20027;-63
2021/12/12 03:12:31;;;;;;;6.45;3.50;;;13.00;87.30;;;;;;5095592;28;20126;-66
2021/12/12 03:15:08;;;;;;;8.05;3.25;;;13.00;87.40;;;;;;5095339;28;20081;-62
2021/12/12 03:17:33;;;;;;;7.95;3.55;;;13.00;88.00;;;;;;5095569;28;20016;-65
2021/12/12 03:20:06;;;;;;;7.30;3.65;;;13.00;87.20;;;;;;5095869;28;20023;-69
2021/12/12 03:22:31;;;;;;;6.03;3.53;;;12.90;87.30;;;;;;5095734;28;20103;-69
2021/12/12 03:24:57;;;;;;;7.38;3.67;;;13.00;87.30;;;;;;5094468;28;20446;-69
2021/12/12 03:27:24;;;;;;;4.85;2.83;;;13.00;87.30;;;;;;5095816;28;20027;-70
2021/12/12 03:29:51;;;;;;;6.97;2.63;;;13.00;87.20;;;;;;5094535;28;20013;-70
2021/12/12 03:32:22;;;;;;;6.47;4.25;;;12.90;87.40;;;;;;5095530;28;20132;-70
2021/12/12 03:34:52;;;;;;;5.50;2.85;;;12.90;87.60;;;;;;5095510;28;20016;-69
2021/12/12 03:37:23;;;;;;;4.50;2.80;;;13.00;87.50;;;;;;5095312;28;20095;-70
2021/12/12 03:39:51;;;;;;;5.00;3.13;;;13.00;87.40;;;;;;5095293;28;20095;-69
2021/12/12 03:42:22;;;;;;;5.80;3.72;;;12.90;87.60;;;;;;5095170;28;20477;-70
2021/12/12 03:44:48;;;;;;;5.82;2.70;;;12.90;87.80;;;;;;5095136;28;20028;-70
2021/12/12 03:47:29;;;;;;;5.65;3.50;;;12.90;88.30;;;;;;5093813;28;20027;-70
2021/12/12 03:49:57;;;;;;;5.47;3.13;;;12.90;87.60;;;;;;5095217;28;20020;-69
2021/12/12 03:52:23;;;;;;;5.53;3.60;;;12.90;87.80;;;;;;5094761;28;20123;-69
2021/12/12 03:54:51;;;;;;;4.65;3.25;;;13.00;87.70;;;;;;5094974;28;20047;-69
2021/12/12 03:57:20;;;;;;;5.75;3.42;;;12.90;87.90;;;;;;5094846;28;20385;-69
2021/12/12 03:59:47;;;;;;;5.20;3.47;;;12.90;87.80;;;;;;5094798;28;20534;-69
2021/12/12 04:02:13;;;;;;;6.15;3.42;;;12.90;88.00;;;;;;5095059;28;20440;-70
2021/12/12 04:04:44;;;;;;;6.13;2.85;;;12.90;87.80;;;;;;5093719;28;20054;-69
2021/12/12 04:07:21;;;;;;;5.95;3.22;;;12.90;87.80;;;;;;5094570;28;20023;-69
2021/12/12 04:09:47;;;;;;;3.20;2.35;;;12.90;87.80;;;;;;5094808;28;20093;-70
2021/12/12 04:12:16;;;;;;;6.05;3.67;;;13.00;87.60;;;;;;5092826;28;20477;-70
2021/12/12 04:14:43;;;;;;;5.50;3.05;;;12.90;87.70;;;;;;5094640;28;20024;-68
2021/12/12 04:17:13;;;;;;;7.25;3.83;;;12.90;87.50;;;;;;5094895;28;20115;-69
2021/12/12 04:19:42;;;;;;;6.07;3.45;;;12.90;87.80;;;;;;5094745;28;20016;-69
2021/12/12 04:22:07;;;;;;;5.65;3.22;;;12.90;87.70;;;;;;5094517;28;20020;-69
2021/12/12 04:24:38;;;;;;;6.88;3.63;;;13.00;87.70;;;;;;5094571;28;20027;-68
2021/12/12 04:27:05;;;;;;;4.85;3.65;;;12.90;87.90;;;;;;5094145;28;20158;-69
2021/12/12 04:29:34;;;;;;;4.45;2.72;;;13.00;87.80;;;;;;5092946;28;20020;-70
2021/12/12 04:32:07;;;;;;;5.70;3.17;;;13.00;87.70;;;;;;5092784;28;20401;-69
2021/12/12 04:34:36;;;;;;;5.13;3.53;;;13.00;87.70;;;;;;5094604;28;20016;-68
2021/12/12 04:37:04;;;;;;;6.07;4.18;;;13.00;88.00;;;;;;5094222;28;20024;-69
2021/12/12 04:39:33;;;;;;;4.43;3.30;;;12.90;87.90;;;;;;5083066;28;20073;-67
2021/12/12 04:42:03;;;;;;;3.75;3.38;;;13.00;88.00;;;;;;5073085;28;20032;-70
2021/12/12 04:44:32;;;;;;;4.60;3.83;;;13.00;88.60;;;;;;5071863;28;20016;-70
2021/12/12 04:50:33;;;;;;;6.15;3.35;;;13.00;87.60;;;;;;5073999;28;20055;-69
2021/12/12 04:53:13;;;;;;;4.85;4.35;;;13.00;87.70;;;;;;5073600;28;20033;-70
2021/12/12 04:56:08;;;;;;;5.05;3.58;;;13.00;88.00;;;;;;5073323;28;20496;-70
2021/12/12 04:59:18;;;;;;;4.55;4.00;;;12.90;88.00;;;;;;5073043;28;20086;-70
2021/12/12 05:02:16;;;;;;;5.20;3.75;;;12.90;88.10;;;;;;5054248;28;20098;-70
2021/12/12 05:04:59;;;;;;;6.78;4.57;;;12.90;88.20;;;;;;5073638;28;20028;-70
2021/12/12 05:07:43;;;;;;;5.25;3.97;;;12.90;88.50;;;;;;5074508;28;20036;-71
2021/12/12 05:10:17;;;;;;;5.57;4.35;;;12.90;88.40;;;;;;5073532;28;20025;-69
2021/12/12 05:12:51;;;;;;;5.93;3.92;;;12.90;88.70;;;;;;5073356;28;20068;-70
2021/12/12 05:15:22;;;;;;;4.50;3.72;;;12.90;88.80;;;;;;5072304;28;20029;-70
2021/12/12 05:18:27;;;;;;;9.15;3.90;;;12.90;88.40;;;;;;5073441;28;20046;-70
2021/12/12 05:21:10;;;;;;;4.25;3.70;;;12.90;88.10;;;;;;5042039;28;20036;-70
2021/12/12 05:23:40;;;;;;;4.03;3.15;;;12.90;88.40;;;;;;5073334;28;20032;-69
2021/12/12 05:26:28;;;;;;;4.03;3.05;;;12.90;88.40;;;;;;5072884;28;20104;-69
2021/12/12 05:29:25;;;;;;;5.32;4.68;;;12.90;88.40;;;;;;5072726;28;20041;-69
2021/12/12 05:31:54;;;;;;;4.65;2.90;;;12.90;88.60;;;;;;5060112;28;20044;-64
2021/12/12 05:34:30;;;;;;;4.75;3.70;;;12.90;88.60;;;;;;5073069;28;20020;-69
2021/12/12 05:36:57;;;;;;;7.20;3.95;;;12.90;88.90;;;;;;5073419;28;20029;-69
2021/12/12 05:39:24;;;;;;;5.85;3.55;;;12.90;89.00;;;;;;5072991;28;20024;-69
2021/12/12 05:41:53;;;;;;;5.70;3.72;;;12.90;88.80;;;;;;5073134;28;20024;-70
2021/12/12 05:44:20;;;;;;;5.93;3.67;;;12.90;88.80;;;;;;5073026;28;20032;-70
2021/12/12 05:46:46;;;;;;;4.75;4.25;;;12.90;89.60;;;;;;5073070;28;20036;-70
2021/12/12 05:49:12;;;;;;;5.05;3.10;;;12.90;88.90;;;;;;5073024;28;20098;-69
2021/12/12 05:51:38;;;;;;;4.88;3.50;;;12.90;88.80;;;;;;5073070;28;20032;-68
2021/12/12 05:54:05;;;;;;;4.35;3.53;;;12.90;88.90;;;;;;5076111;28;20070;-68
2021/12/12 05:56:35;;;;;;;4.43;2.97;;;12.90;88.90;;;;;;5077258;28;20033;-70
2021/12/12 05:59:01;;;;;;;5.75;4.38;;;12.90;88.60;;;;;;5077027;28;20028;-71
2021/12/12 06:01:29;;;;;;;6.70;3.67;;;12.90;89.10;;;;;;5078703;28;20031;-69
2021/12/12 06:03:55;;;;;;;5.38;4.53;;;12.90;89.00;;;;;;5076370;28;20029;-67
2021/12/12 06:06:26;;;;;;;6.90;4.50;;;12.90;89.50;;;;;;5075770;28;20366;-68
2021/12/12 06:09:00;;;;;;;4.35;3.47;;;12.80;89.70;;;;;;5074630;28;20028;-71
2021/12/12 06:11:28;;;;;;;5.50;3.75;;;12.80;89.70;;;;;;5076873;28;20505;-69
2021/12/12 06:13:55;;;;;;;4.57;3.60;;;12.90;89.60;;;;;;5076554;28;20036;-63
2021/12/12 06:16:22;;;;;;;5.20;4.18;;;12.80;89.70;;;;;;5076847;28;20032;-69
2021/12/12 06:18:52;;;;;;;5.55;4.00;;;12.80;89.80;;;;;;5076572;28;20396;-65
2021/12/12 06:21:19;;;;;;;6.95;4.75;;;12.90;89.60;;;;;;5076469;28;20024;-69
2021/12/12 06:23:45;;;;;;;4.65;4.07;;;12.90;89.80;;;;;;5075205;28;20016;-71
2021/12/12 06:26:11;;;;;;;4.80;3.55;;;12.90;89.50;;;;;;5079772;28;20035;-68
2021/12/12 06:28:39;;;;;;;4.30;2.67;;;12.90;89.20;;;;;;5080531;28;20033;-68
2021/12/12 06:31:06;;;;;;;4.82;2.60;;;13.00;88.90;;;;;;5075964;28;20154;-63
2021/12/12 06:33:32;;;;;;;3.28;2.25;;;12.90;88.80;;;;;;5085901;28;20028;-66
2021/12/12 06:35:59;;;;;;;6.28;4.85;;;13.00;88.80;;;;;;5086844;28;20026;-58
2021/12/12 06:38:25;;;;;;;6.20;3.38;;;13.00;89.00;;;;;;5080933;28;20154;-66
2021/12/12 06:40:51;;;;;;;3.88;2.70;;;13.00;89.20;;;;;;5087755;28;20109;-61
2021/12/12 06:43:20;;;;;;;6.05;2.80;;;13.00;89.10;;;;;;5088790;28;20023;-62
2021/12/12 06:45:47;;;;;;;4.30;2.72;;;13.10;89.20;;;;;;5085241;28;20033;-68
2021/12/12 06:48:14;;;;;;;7.38;4.63;;;13.10;89.30;;;;;;5095045;28;20216;-67
2021/12/12 06:50:41;;;;;;;5.50;2.75;;;13.10;89.50;;;;;;5083252;28;20093;-62
2021/12/12 06:53:09;;;;;;;5.85;3.15;;;13.10;90.10;;;;;;5087744;28;20049;-60
2021/12/12 06:55:37;;;;;;;5.18;4.10;;;13.10;89.80;;;;;;5080574;28;20028;-62
2021/12/12 06:58:07;;;;;;;7.05;4.57;;;13.10;89.90;;;;;;5081283;28;20025;-61
2021/12/12 07:00:34;;;;;;;7.45;5.10;;;13.20;90.00;;;;;;5095917;28;20056;-67
2021/12/12 07:03:00;;;;;;;7.63;4.50;;;13.20;90.10;;;;;;5086492;28;20035;-63
2021/12/12 07:05:28;;;;;;;3.97;3.05;;;13.10;90.10;;;;;;5093721;28;20027;-68
2021/12/12 07:07:55;;;;;;;5.78;4.35;;;13.20;90.20;;;;;;5093167;28;20020;-63
2021/12/12 07:10:24;;;;;;;4.53;2.90;;;13.20;90.20;;;;;;5075334;28;20355;-64
2021/12/12 07:12:55;;;;;;;7.63;4.45;;;13.20;90.30;;;;;;5078188;28;20028;-71
2021/12/12 07:15:36;;;;;;;5.28;3.55;;;13.20;90.30;;;;;;5090764;28;20382;-67
2021/12/12 07:18:08;;;;;;;5.00;4.32;;;13.30;90.30;;;;;;5086054;28;20132;-67
2021/12/12 07:20:34;;;;;;;6.57;4.45;;;13.20;90.30;;;;;;5089721;28;20070;-70
2021/12/12 07:23:05;;;;;;;4.82;3.58;;;13.20;90.30;;;;;;5094244;28;20415;-71
2021/12/12 07:25:33;;;;;;;4.45;2.20;;;13.30;90.40;;;;;;5095142;28;20107;-70
2021/12/12 07:28:00;;;;;;;8.30;3.97;;;13.20;90.40;;;;;;5115693;28;20055;-70
2021/12/12 07:30:25;;;;;;;4.45;2.47;;;13.30;90.40;;;;;;5115845;28;20027;-69
2021/12/12 07:32:52;;;;;;;6.90;4.85;;;13.30;90.30;;;;;;5115286;28;20031;-70
2021/12/12 07:35:18;;;;;;;8.70;5.05;;;13.40;90.30;;;;;;5102564;28;20488;-70
2021/12/12 07:37:45;;;;;;;3.30;2.33;;;13.30;90.40;;;;;;5090639;28;20020;-71
2021/12/12 07:40:13;;;;;;;5.35;2.80;;;13.40;90.30;;;;;;5074943;28;20489;-71
2021/12/12 07:42:41;;;;;;;4.90;3.17;;;13.30;90.40;;;;;;5082628;28;20095;-71
2021/12/12 07:45:07;;;;;;;8.77;3.78;;;13.30;90.30;;;;;;5093938;28;20086;-71
2021/12/12 07:47:33;;;;;;;8.93;5.40;;;13.40;90.40;;;;;;5094634;28;20107;-70
2021/12/12 07:50:00;;;;;;;7.65;5.05;;;13.30;90.40;;;;;;5094531;28;20095;-71
2021/12/12 07:52:27;;;;;;;7.55;3.03;;;13.30;90.50;;;;;;5094931;28;20050;-71
2021/12/12 07:54:55;;;;;;;6.82;3.47;;;13.40;90.60;;;;;;5090128;28;20028;-69
2021/12/12 07:57:22;;;;;;;23.15;5.07;;;13.40;90.60;;;;;;5083369;28;20017;-65
2021/12/12 07:59:48;;;;;;;7.75;2.75;;;13.40;90.60;;;;;;5070980;28;20047;-71
2021/12/12 08:02:15;;;;;;;12.77;8.85;;;13.50;90.70;;;;;;5076285;28;20048;-66
2021/12/12 08:04:45;;;;;;;11.30;5.72;;;13.60;90.60;;;;;;5072431;28;20119;-69
2021/12/12 08:07:13;;;;;;;9.10;5.07;;;13.50;90.50;;;;;;5072727;28;20087;-62
2021/12/12 08:09:42;;;;;;;12.30;6.13;;;13.50;90.50;;;;;;5071586;28;20024;-66
2021/12/12 08:12:10;;;;;;;11.32;5.40;;;13.50;90.60;;;;;;5074105;28;20048;-69
2021/12/12 08:14:36;;;;;;;12.70;6.30;;;13.50;90.70;;;;;;5078505;28;20074;-65
2021/12/12 08:17:02;;;;;;;12.85;6.93;;;13.50;90.70;;;;;;5077266;28;20032;-68
2021/12/12 08:19:29;;;;;;;10.18;7.15;;;13.40;90.60;;;;;;5074940;28;20054;-66
2021/12/12 08:22:00;;;;;;;8.30;5.57;;;13.40;90.90;;;;;;5078627;28;20066;-68
2021/12/12 08:24:26;;;;;;;13.27;7.88;;;13.40;90.80;;;;;;5074001;28;20020;-69
2021/12/12 08:26:53;;;;;;;13.05;8.40;;;13.40;90.80;;;;;;5087550;28;20172;-67
2021/12/12 08:29:19;;;;;;;16.40;8.65;;;13.40;90.90;;;;;;5094179;28;20016;-70
2021/12/12 08:31:46;;;;;;;12.40;6.55;;;13.30;91.00;;;;;;5087130;28;20056;-68
2021/12/12 08:34:12;;;;;;;13.10;6.15;;;13.30;91.10;;;;;;5085846;28;20478;-68
2021/12/12 08:36:43;;;;;;;11.02;5.82;;;13.40;91.10;;;;;;5073821;28;20033;-68
2021/12/12 08:39:10;;;;;;;9.60;6.22;;;13.40;91.20;;;;;;5080017;28;20031;-69
2021/12/12 08:41:37;;;;;;;11.80;8.60;;;13.40;91.20;;;;;;5080846;28;20036;-67
2021/12/12 08:44:06;;;;;;;16.70;9.25;;;13.40;91.20;;;;;;5075395;28;20436;-66
2021/12/12 08:46:32;;;;;;;15.32;10.45;;;13.40;91.30;;;;;;5074590;28;20016;-68
2021/12/12 08:48:59;;;;;;;14.82;9.48;;;13.30;91.40;;;;;;5077369;28;20024;-67
2021/12/12 08:51:32;;;;;;;15.35;10.32;;;13.40;91.50;;;;;;5074956;28;20068;-67
2021/12/12 08:54:12;;;;;;;16.98;10.18;;;13.30;91.60;;;;;;5077588;28;20385;-67
2021/12/12 08:56:43;;;;;;;13.80;10.02;;;13.30;91.60;;;;;;5077007;28;20073;-65
2021/12/12 08:59:12;;;;;;;14.65;9.52;;;13.30;91.80;;;;;;5081181;28;20028;-68
2021/12/12 09:01:39;;;;;;;11.82;7.03;;;13.30;91.90;;;;;;5078727;28;20051;-62
2021/12/12 09:04:08;;;;;;;8.63;5.72;;;13.30;91.90;;;;;;5074989;28;20047;-67
2021/12/12 09:07:01;;;;;;;9.15;4.40;;;13.30;91.70;;;;;;5088703;28;20027;-69
2021/12/12 09:09:33;;;;;;;10.77;3.80;;;13.50;91.50;;;;;;5079513;28;20647;-67
2021/12/12 09:12:03;;;;;;;12.47;4.83;;;13.60;91.50;;;;;;5078835;28;20047;-68
2021/12/12 09:14:39;;;;;;;11.77;4.93;;;13.70;91.40;;;;;;5085697;28;20787;-69
2021/12/12 09:17:15;;;;;;;15.32;7.97;;;13.70;91.30;;;;;;5076354;28;20114;-69
2021/12/12 09:20:03;;;;;;;11.82;7.25;;;13.70;91.30;;;;;;5083188;28;20034;-67
2021/12/12 09:22:37;;;;;;;11.85;4.70;;;13.70;91.20;;;;;;5088148;28;20029;-64
2021/12/12 09:25:02;;;;;;;9.18;4.97;;;13.70;91.40;;;;;;5092276;28;20023;-64
2021/12/12 09:27:34;;;;;;;14.60;7.47;;;13.70;91.50;;;;;;5090998;28;20028;-65
2021/12/12 09:30:11;;;;;;;9.65;4.47;;;13.70;91.60;;;;;;5091388;28;20039;-66
2021/12/12 09:32:45;;;;;;;9.07;4.50;;;13.80;91.70;;;;;;5084378;28;20028;-66
2021/12/12 09:35:24;;;;;;;10.98;4.55;;;13.90;91.60;;;;;;5084952;28;20604;-64
2021/12/12 09:37:55;;;;;;;15.48;5.20;;;13.90;91.50;;;;;;5082746;28;20028;-60
2021/12/12 09:40:46;;;;;;;11.23;4.63;;;14.00;91.70;;;;;;5090758;28;20473;-59
2021/12/12 09:43:35;;;;;;;12.05;6.28;;;14.00;91.70;;;;;;5080907;28;20065;-60
2021/12/12 09:46:19;;;;;;;12.50;4.50;;;14.00;91.50;;;;;;5088752;28;20471;-64
2021/12/12 09:52:06;;;;;;;10.50;4.60;;;14.00;91.50;;;;;;5077560;28;20390;-59
2021/12/12 09:54:59;;;;;;;7.45;5.03;;;14.10;91.40;;;;;;5079771;28;20101;-61
2021/12/12 09:57:48;;;;;;;11.63;6.40;;;14.10;91.40;;;;;;5078681;28;20586;-66
2021/12/12 10:00:37;;;;;;;9.77;6.47;;;14.10;91.30;;;;;;5079461;28;20084;-63
2021/12/12 10:03:03;;;;;;;10.10;4.55;;;14.00;91.30;;;;;;5071469;28;20024;-61
2021/12/12 10:05:47;;;;;;;10.73;6.47;;;14.00;91.40;;;;;;5086644;28;20538;-66
2021/12/12 10:08:36;;;;;;;10.32;5.75;;;14.00;91.40;;;;;;5083070;28;20012;-65
2021/12/12 10:11:19;;;;;;;15.75;5.95;;;14.00;91.40;;;;;;5076302;28;20074;-68
2021/12/12 10:13:50;;;;;;;11.07;6.18;;;14.00;91.40;;;;;;5075522;28;20542;-63
2021/12/12 10:16:28;;;;;;;14.00;5.53;;;13.90;91.40;;;;;;5096796;28;20428;-60
2021/12/12 10:19:01;;;;;;;9.30;4.13;;;14.00;91.50;;;;;;5065482;28;20485;-60
2021/12/12 10:21:54;;;;;;;6.93;4.93;;;14.00;91.60;;;;;;5077743;28;20042;-61
2021/12/12 10:24:32;;;;;;;6.25;3.58;;;14.00;91.60;;;;;;5084879;28;20027;-61
2021/12/12 10:27:36;;;;;;;11.40;6.57;;;14.10;91.80;;;;;;5080675;28;20069;-61
2021/12/12 10:30:01;;;;;;;10.23;7.55;;;14.10;91.90;;;;;;5089050;28;20027;-68
2021/12/12 10:32:35;;;;;;;11.55;7.70;;;14.00;91.90;;;;;;5091616;28;20043;-60
2021/12/12 10:35:36;;;;;;;11.85;7.65;;;14.00;91.80;;;;;;5084801;28;20508;-61
2021/12/12 10:38:07;;;;;;;10.35;7.57;;;14.00;91.90;;;;;;5079993;28;20040;-64
2021/12/12 10:40:47;;;;;;;12.38;8.48;;;14.00;91.90;;;;;;5088879;28;20017;-61
2021/12/12 10:43:22;;;;;;;12.20;9.00;;;14.00;92.00;;;;;;5088323;28;20423;-68
2021/12/12 10:45:52;;;;;;;8.90;6.45;;;13.90;92.10;;;;;;5088259;28;20477;-67
2021/12/12 10:48:20;;;;;;;12.23;7.90;;;13.90;92.10;;;;;;5075797;28;20043;-61
2021/12/12 10:50:56;;;;;;;9.20;6.78;;;14.00;92.30;;;;;;5078556;28;20461;-65
2021/12/12 10:53:34;;;;;;;12.60;7.30;;;13.90;92.30;;;;;;5095343;28;20065;-60
2021/12/12 10:56:23;;;;;;;7.13;5.57;;;14.00;92.50;;;;;;5085526;28;20060;-60
2021/12/12 10:58:53;;;;;;;12.80;6.63;;;14.10;92.60;;;;;;5077813;28;20020;-65
2021/12/12 11:01:24;;;;;;;12.57;6.95;;;14.10;93.00;;;;;;5088540;28;20016;-63
2021/12/12 11:03:51;;;;;;;12.35;9.82;;;14.10;93.20;;;;;;5080238;28;20058;-65
2021/12/12 11:06:33;;;;;;;19.38;10.52;;;14.10;93.20;;;;;;5081477;28;20020;-64
2021/12/12 11:09:05;;;;;;;17.23;8.32;;;14.00;93.20;;;;;;5078653;28;20512;-64
2021/12/12 11:11:39;;;;;;;20.38;9.05;;;14.10;94.00;;;;;;5080369;28;20337;-70
2021/12/12 11:14:21;;;;;;;25.45;10.25;;;14.10;94.70;;;;;;5087651;28;20043;-62
2021/12/12 11:16:54;;;;;;;31.75;13.23;;;14.20;95.40;;;;;;5078729;28;20031;-61
2021/12/12 11:19:28;;;;;;;;;;;14.20;96.00;;;;;;5086850;28;20016;-62
2021/12/12 11:22:17;;;;;;;19.60;13.32;;;14.20;95.90;;;;;;5085051;28;19911;-60
2021/12/12 11:24:49;;;;;;;34.80;15.43;;;14.20;95.90;;;;;;5063317;28;20122;-62
2021/12/12 11:27:24;;;;;;;37.78;18.50;;;14.20;96.90;;;;;;5079190;28;20385;-62
2021/12/12 11:30:00;;;;;;;24.63;15.73;;;14.30;98.50;;;;;;5079703;28;20032;-62
2021/12/12 11:32:30;;;;;;;27.85;15.77;;;14.40;97.90;;;;;;5077180;28;20119;-60
2021/12/12 11:34:57;;;;;;;31.52;21.50;;;14.50;97.60;;;;;;5084761;28;20031;-60
2021/12/12 11:37:35;;;;;;;26.85;17.27;;;14.50;96.90;;;;;;5078749;28;20462;-60
2021/12/12 11:40:02;;;;;;;21.95;15.90;;;14.50;96.50;;;;;;5081863;28;20047;-60
2021/12/12 11:42:46;;;;;;;17.15;14.20;;;14.50;96.10;;;;;;5077323;28;20020;-60
2021/12/12 11:45:23;;;;;;;15.30;12.73;;;14.50;95.90;;;;;;5084675;28;20169;-60
2021/12/12 11:47:55;;;;;;;15.80;13.10;;;14.50;95.40;;;;;;5074641;28;20090;-59
2021/12/12 11:50:38;;;;;;;15.48;12.63;;;14.50;95.10;;;;;;5075026;28;20494;-66
2021/12/12 11:53:34;;;;;;;15.80;13.20;;;14.40;95.00;;;;;;5076461;28;20044;-60
2021/12/12 11:56:11;;;;;;;15.02;13.00;;;14.30;95.00;;;;;;5074907;28;20020;-60
2021/12/12 11:58:59;;;;;;;15.07;12.73;;;14.30;95.10;;;;;;5087961;28;20077;-61
2021/12/12 12:01:32;;;;;;;14.57;11.27;;;14.20;95.10;;;;;;5088939;28;20020;-63
2021/12/12 12:04:05;;;;;;;17.42;11.48;;;14.30;96.30;;;;;;5079469;28;20028;-61
2021/12/12 12:06:38;;;;;;;17.35;12.02;;;14.40;96.40;;;;;;5087915;28;20355;-60
2021/12/12 12:09:30;;;;;;;16.67;10.65;;;14.50;96.40;;;;;;5086362;28;20036;-59
2021/12/12 12:12:12;;;;;;;15.63;10.05;;;14.50;96.40;;;;;;5087801;28;20504;-60
2021/12/12 12:14:43;;;;;;;11.10;8.95;;;14.60;96.30;;;;;;5085062;28;20090;-60
2021/12/12 12:17:32;;;;;;;10.75;9.02;;;14.60;96.60;;;;;;5075602;28;20016;-59
2021/12/12 12:20:36;;;;;;;11.07;9.63;;;14.60;96.70;;;;;;5073451;28;20062;-59
2021/12/12 12:23:06;;;;;;;13.15;8.88;;;14.60;96.50;;;;;;5051221;28;20047;-60
2021/12/12 12:28:42;;;;;;;13.75;9.70;;;14.60;97.50;;;;;;5069483;28;20401;-59
2021/12/12 12:31:28;;;;;;;11.83;10.70;;;14.70;98.00;;;;;;5081360;28;20046;-64
2021/12/12 12:34:38;;;;;;;13.18;10.27;;;14.60;96.80;;;;;;5069714;28;20282;-68
2021/12/12 12:37:41;;;;;;;14.93;10.73;;;14.60;96.10;;;;;;5076828;28;20086;-69
2021/12/12 12:40:54;;;;;;;15.38;10.30;;;14.60;97.80;;;;;;5082388;28;20016;-60
2021/12/12 12:44:13;;;;;;;17.77;10.50;;;14.60;98.10;;;;;;5076023;28;22434;-65
2021/12/12 12:47:09;;;;;;;14.70;9.65;;;14.70;98.10;;;;;;5085264;28;20043;-69
2021/12/12 12:50:09;;;;;;;15.27;7.60;;;14.70;98.20;;;;;;5075630;28;20046;-68
2021/12/12 12:53:12;;;;;;;12.60;8.50;;;14.70;98.30;;;;;;5086026;28;20512;-68
2021/12/12 12:56:05;;;;;;;11.52;7.00;;;14.70;98.50;;;;;;5068977;28;20039;-64
2021/12/12 12:59:02;;;;;;;13.40;7.35;;;14.70;98.70;;;;;;5076319;28;20517;-63
2021/12/12 13:01:43;;;;;;;10.75;5.82;;;14.80;98.70;;;;;;5070608;28;20034;-69
2021/12/12 13:04:56;;;;;;;12.60;5.83;;;14.80;98.80;;;;;;5086112;28;20027;-72
2021/12/12 13:07:40;;;;;;;13.27;6.25;;;14.80;98.40;;;;;;5019105;28;20034;-66
2021/12/12 13:10:20;;;;;;;8.10;7.30;;;14.80;98.60;;;;;;5014037;28;20625;-71
2021/12/12 13:13:09;;;;;;;10.02;7.75;;;14.80;98.00;;;;;;5057186;28;20058;-70
2021/12/12 13:16:22;;;;;;;12.30;7.65;;;14.70;97.80;;;;;;5080423;28;20020;-68
2021/12/12 13:18:58;;;;;;;8.32;6.85;;;14.70;97.60;;;;;;5066039;28;20417;-70
2021/12/12 13:21:37;;;;;;;12.85;9.02;;;14.80;97.50;;;;;;5072976;28;20031;-63
2021/12/12 13:24:24;;;;;;;12.98;9.20;;;14.70;96.90;;;;;;5078219;28;20374;-72
2021/12/12 13:27:11;;;;;;;10.50;8.20;;;14.70;96.70;;;;;;5076695;28;20059;-71
2021/12/12 13:29:43;;;;;;;10.35;8.25;;;14.70;96.70;;;;;;5077862;28;20023;-60
2021/12/12 13:32:14;;;;;;;;;;;14.70;97.00;;;;;;5079493;28;20046;-65
2021/12/12 13:34:53;;;;;;;10.68;9.25;;;14.70;96.60;;;;;;5075925;28;19923;-68
2021/12/12 13:37:34;;;;;;;11.48;9.02;;;14.70;96.70;;;;;;5084941;28;20089;-67
2021/12/12 13:40:31;;;;;;;15.00;10.57;;;14.60;96.80;;;;;;5083047;28;20115;-69